Reek, Netherlands
Current Conditions -  °F | °C
As of 2:55 AM on Sunday 26 Oct 2014 (Local Time) from EHVK Reporting Station
Overcast Overcast  
Wind Chill: 46°   Ceiling: 4300
Heat Index: 48°   Visibility: 6mi
Dew Point: 46°   Wind: 5mph
Humidity: 93%   Direction: 210°SSW
Pressure: 30.21"   Gusts: NA
Location:  51.75°N, 5.68°E
Report Text: EHVK 260055Z AUTO 21004KT 9999 OVC043 09/08 Q1023 BLU
Loading
Personal Weather Stations






























Interactive Weather Map
Tropical Storm Tracking
New forecast layout! Learn more

10-Day Weather Forecast

Advertisements
Track Severe Weather on mobile